sensor_id;sensor_type;location;lat;lon;timestamp;temperature;humidity
38582;DHT22;24349;53.720;10.014;2023-06-22T00:01:09;17.10;99.90
38582;DHT22;24349;53.720;10.014;2023-06-22T00:03:34;17.10;99.90
38582;DHT22;24349;53.720;10.014;2023-06-22T00:06:00;17.10;99.90
38582;DHT22;24349;53.720;10.014;2023-06-22T00:08:25;17.10;99.90
38582;DHT22;24349;53.720;10.014;2023-06-22T00:10:51;17.10;99.90
38582;DHT22;24349;53.720;10.014;2023-06-22T00:13:17;17.10;99.90
38582;DHT22;24349;53.720;10.014;2023-06-22T00:15:43;17.10;99.90
38582;DHT22;24349;53.720;10.014;2023-06-22T00:18:10;17.10;99.90
38582;DHT22;24349;53.720;10.014;2023-06-22T00:20:36;17.20;99.90
38582;DHT22;24349;53.720;10.014;2023-06-22T00:23:04;17.20;99.90
38582;DHT22;24349;53.720;10.014;2023-06-22T00:25:40;17.20;99.90
38582;DHT22;24349;53.720;10.014;2023-06-22T00:28:06;17.00;99.90
38582;DHT22;24349;53.720;10.014;2023-06-22T00:30:33;16.90;99.90
38582;DHT22;24349;53.720;10.014;2023-06-22T00:32:59;16.90;99.90
38582;DHT22;24349;53.720;10.014;2023-06-22T00:35:25;16.90;99.90
38582;DHT22;24349;53.720;10.014;2023-06-22T00:37:58;16.80;99.90
38582;DHT22;24349;53.720;10.014;2023-06-22T00:40:27;16.90;99.90
38582;DHT22;24349;53.720;10.014;2023-06-22T00:42:52;16.90;99.90
38582;DHT22;24349;53.720;10.014;2023-06-22T00:45:18;17.00;99.90
38582;DHT22;24349;53.720;10.014;2023-06-22T00:47:44;17.10;99.90
38582;DHT22;24349;53.720;10.014;2023-06-22T00:50:12;17.10;99.90
38582;DHT22;24349;53.720;10.014;2023-06-22T00:52:43;17.20;99.90
38582;DHT22;24349;53.720;10.014;2023-06-22T00:55:11;17.20;99.90
38582;DHT22;24349;53.720;10.014;2023-06-22T00:57:37;17.10;99.90
38582;DHT22;24349;53.720;10.014;2023-06-22T01:00:03;17.00;99.90
38582;DHT22;24349;53.720;10.014;2023-06-22T01:02:34;17.00;99.90
38582;DHT22;24349;53.720;10.014;2023-06-22T01:04:59;17.00;99.90
38582;DHT22;24349;53.720;10.014;2023-06-22T01:10:03;17.00;99.90
38582;DHT22;24349;53.720;10.014;2023-06-22T01:12:36;17.00;99.90
38582;DHT22;24349;53.720;10.014;2023-06-22T01:15:11;17.00;99.90
38582;DHT22;24349;53.720;10.014;2023-06-22T01:17:40;16.90;99.90
38582;DHT22;24349;53.720;10.014;2023-06-22T01:20:09;16.90;99.90
38582;DHT22;24349;53.720;10.014;2023-06-22T01:22:50;16.90;99.90
38582;DHT22;24349;53.720;10.014;2023-06-22T01:25:31;16.90;99.90
38582;DHT22;24349;53.720;10.014;2023-06-22T01:30:30;16.90;99.90
38582;DHT22;24349;53.720;10.014;2023-06-22T01:33:01;16.90;99.90
38582;DHT22;24349;53.720;10.014;2023-06-22T01:35:28;16.90;99.90
38582;DHT22;24349;53.720;10.014;2023-06-22T01:37:54;16.80;99.90
38582;DHT22;24349;53.720;10.014;2023-06-22T01:40:21;16.80;99.90
38582;DHT22;24349;53.720;10.014;2023-06-22T01:42:48;16.70;99.90
38582;DHT22;24349;53.720;10.014;2023-06-22T01:45:14;16.70;99.90
38582;DHT22;24349;53.720;10.014;2023-06-22T01:47:41;16.70;99.90
38582;DHT22;24349;53.720;10.014;2023-06-22T01:50:07;16.70;99.90
38582;DHT22;24349;53.720;10.014;2023-06-22T01:52:33;16.70;99.90
38582;DHT22;24349;53.720;10.014;2023-06-22T01:55:00;16.70;99.90
38582;DHT22;24349;53.720;10.014;2023-06-22T01:57:26;16.70;99.90
38582;DHT22;24349;53.720;10.014;2023-06-22T02:02:39;16.80;99.90
38582;DHT22;24349;53.720;10.014;2023-06-22T02:05:09;16.70;99.90
38582;DHT22;24349;53.720;10.014;2023-06-22T02:07:52;16.80;99.90
38582;DHT22;24349;53.720;10.014;2023-06-22T02:10:20;16.80;99.90
38582;DHT22;24349;53.720;10.014;2023-06-22T02:12:47;16.80;99.90
38582;DHT22;24349;53.720;10.014;2023-06-22T02:15:13;16.80;99.90
38582;DHT22;24349;53.720;10.014;2023-06-22T02:17:40;16.90;99.90
38582;DHT22;24349;53.720;10.014;2023-06-22T02:20:12;17.00;99.90
38582;DHT22;24349;53.720;10.014;2023-06-22T02:22:38;16.90;99.90
38582;DHT22;24349;53.720;10.014;2023-06-22T02:25:04;16.90;99.90
38582;DHT22;24349;53.720;10.014;2023-06-22T02:27:30;16.80;99.90
38582;DHT22;24349;53.720;10.014;2023-06-22T02:29:56;16.90;99.90
38582;DHT22;24349;53.720;10.014;2023-06-22T02:32:22;16.90;99.90
38582;DHT22;24349;53.720;10.014;2023-06-22T02:34:47;16.80;99.90
38582;DHT22;24349;53.720;10.014;2023-06-22T02:37:16;16.80;99.90
38582;DHT22;24349;53.720;10.014;2023-06-22T02:39:42;16.80;99.90
38582;DHT22;24349;53.720;10.014;2023-06-22T02:42:08;16.80;99.90
38582;DHT22;24349;53.720;10.014;2023-06-22T02:44:36;16.80;99.90
38582;DHT22;24349;53.720;10.014;2023-06-22T02:47:01;16.80;99.90
38582;DHT22;24349;53.720;10.014;2023-06-22T02:49:27;16.80;99.90
38582;DHT22;24349;53.720;10.014;2023-06-22T02:51:53;16.80;99.90
38582;DHT22;24349;53.720;10.014;2023-06-22T02:54:19;16.80;99.90
38582;DHT22;24349;53.720;10.014;2023-06-22T02:56:44;16.80;99.90
38582;DHT22;24349;53.720;10.014;2023-06-22T02:59:10;16.80;99.90
38582;DHT22;24349;53.720;10.014;2023-06-22T03:01:36;16.80;99.90
38582;DHT22;24349;53.720;10.014;2023-06-22T03:04:08;16.70;99.90
38582;DHT22;24349;53.720;10.014;2023-06-22T03:06:35;16.60;99.90
38582;DHT22;24349;53.720;10.014;2023-06-22T03:09:02;16.60;99.90
38582;DHT22;24349;53.720;10.014;2023-06-22T03:11:29;16.60;99.90
38582;DHT22;24349;53.720;10.014;2023-06-22T03:13:56;16.60;99.90
38582;DHT22;24349;53.720;10.014;2023-06-22T03:16:22;16.60;99.90
38582;DHT22;24349;53.720;10.014;2023-06-22T03:18:47;16.60;99.90
38582;DHT22;24349;53.720;10.014;2023-06-22T03:21:13;16.60;99.90
38582;DHT22;24349;53.720;10.014;2023-06-22T03:23:41;16.60;99.90
38582;DHT22;24349;53.720;10.014;2023-06-22T03:26:08;16.60;99.90
38582;DHT22;24349;53.720;10.014;2023-06-22T03:28:33;16.60;99.90
38582;DHT22;24349;53.720;10.014;2023-06-22T03:30:59;16.60;99.90
38582;DHT22;24349;53.720;10.014;2023-06-22T03:33:25;16.60;99.90
38582;DHT22;24349;53.720;10.014;2023-06-22T03:35:50;16.60;99.90
38582;DHT22;24349;53.720;10.014;2023-06-22T03:38:17;16.50;99.90
38582;DHT22;24349;53.720;10.014;2023-06-22T03:40:43;16.50;99.90
38582;DHT22;24349;53.720;10.014;2023-06-22T03:43:08;16.50;99.90
38582;DHT22;24349;53.720;10.014;2023-06-22T03:45:34;16.50;99.90
38582;DHT22;24349;53.720;10.014;2023-06-22T03:48:00;16.50;99.90
38582;DHT22;24349;53.720;10.014;2023-06-22T03:50:26;16.50;99.90
38582;DHT22;24349;53.720;10.014;2023-06-22T03:52:52;16.60;99.90
38582;DHT22;24349;53.720;10.014;2023-06-22T03:55:19;16.60;99.90
38582;DHT22;24349;53.720;10.014;2023-06-22T03:57:45;16.60;99.90
38582;DHT22;24349;53.720;10.014;2023-06-22T04:00:11;16.60;99.90
38582;DHT22;24349;53.720;10.014;2023-06-22T04:02:37;16.60;99.90
38582;DHT22;24349;53.720;10.014;2023-06-22T04:05:03;16.70;99.90
38582;DHT22;24349;53.720;10.014;2023-06-22T04:07:28;16.80;99.90
38582;DHT22;24349;53.720;10.014;2023-06-22T04:09:54;16.90;99.90
38582;DHT22;24349;53.720;10.014;2023-06-22T04:12:19;17.00;99.90
38582;DHT22;24349;53.720;10.014;2023-06-22T04:14:45;17.20;99.90
38582;DHT22;24349;53.720;10.014;2023-06-22T04:17:11;17.30;99.90
38582;DHT22;24349;53.720;10.014;2023-06-22T04:19:39;17.40;99.90
38582;DHT22;24349;53.720;10.014;2023-06-22T04:22:05;17.50;99.90
38582;DHT22;24349;53.720;10.014;2023-06-22T04:24:33;17.50;99.90
38582;DHT22;24349;53.720;10.014;2023-06-22T04:26:58;17.40;99.90
38582;DHT22;24349;53.720;10.014;2023-06-22T04:29:25;17.60;99.90
38582;DHT22;24349;53.720;10.014;2023-06-22T04:31:54;17.70;99.90
38582;DHT22;24349;53.720;10.014;2023-06-22T04:34:21;17.70;99.90
38582;DHT22;24349;53.720;10.014;2023-06-22T04:36:47;17.60;99.90
38582;DHT22;24349;53.720;10.014;2023-06-22T04:39:12;17.70;99.90
38582;DHT22;24349;53.720;10.014;2023-06-22T04:41:39;17.80;99.90
38582;DHT22;24349;53.720;10.014;2023-06-22T04:44:12;17.90;99.90
38582;DHT22;24349;53.720;10.014;2023-06-22T04:46:38;18.10;99.90
38582;DHT22;24349;53.720;10.014;2023-06-22T04:49:08;18.20;99.90
38582;DHT22;24349;53.720;10.014;2023-06-22T04:51:39;18.40;99.90
38582;DHT22;24349;53.720;10.014;2023-06-22T04:54:06;18.30;99.90
38582;DHT22;24349;53.720;10.014;2023-06-22T04:56:32;18.40;99.90
38582;DHT22;24349;53.720;10.014;2023-06-22T04:58:59;18.50;99.90
38582;DHT22;24349;53.720;10.014;2023-06-22T05:01:24;18.60;99.90
38582;DHT22;24349;53.720;10.014;2023-06-22T05:03:51;18.80;99.90
38582;DHT22;24349;53.720;10.014;2023-06-22T05:06:21;18.80;99.90
38582;DHT22;24349;53.720;10.014;2023-06-22T05:08:47;18.90;99.90
38582;DHT22;24349;53.720;10.014;2023-06-22T05:11:13;19.00;99.90
38582;DHT22;24349;53.720;10.014;2023-06-22T05:13:38;18.90;96.90
38582;DHT22;24349;53.720;10.014;2023-06-22T05:16:04;18.90;95.70
38582;DHT22;24349;53.720;10.014;2023-06-22T05:18:31;19.00;94.70
38582;DHT22;24349;53.720;10.014;2023-06-22T05:20:58;19.10;94.80
38582;DHT22;24349;53.720;10.014;2023-06-22T05:23:24;19.10;93.70
38582;DHT22;24349;53.720;10.014;2023-06-22T05:25:50;19.20;98.40
38582;DHT22;24349;53.720;10.014;2023-06-22T05:28:16;19.40;95.80
38582;DHT22;24349;53.720;10.014;2023-06-22T05:30:42;19.50;90.70
38582;DHT22;24349;53.720;10.014;2023-06-22T05:33:07;19.50;53.40
38582;DHT22;24349;53.720;10.014;2023-06-22T05:35:33;19.50;27.40
38582;DHT22;24349;53.720;10.014;2023-06-22T05:37:58;19.50;33.30
38582;DHT22;24349;53.720;10.014;2023-06-22T05:40:24;19.60;39.40
38582;DHT22;24349;53.720;10.014;2023-06-22T05:42:49;19.60;12.10
38582;DHT22;24349;53.720;10.014;2023-06-22T05:45:15;19.70;19.60
38582;DHT22;24349;53.720;10.014;2023-06-22T05:47:41;19.80;11.50
38582;DHT22;24349;53.720;10.014;2023-06-22T05:50:07;20.10;28.30
38582;DHT22;24349;53.720;10.014;2023-06-22T05:52:34;20.20;1.00
38582;DHT22;24349;53.720;10.014;2023-06-22T05:55:01;20.30;1.00
38582;DHT22;24349;53.720;10.014;2023-06-22T05:57:27;20.40;1.00
38582;DHT22;24349;53.720;10.014;2023-06-22T05:59:53;20.50;1.00
38582;DHT22;24349;53.720;10.014;2023-06-22T06:02:19;20.60;1.00
38582;DHT22;24349;53.720;10.014;2023-06-22T06:04:45;20.90;1.00
38582;DHT22;24349;53.720;10.014;2023-06-22T06:07:10;21.20;1.00
38582;DHT22;24349;53.720;10.014;2023-06-22T06:09:36;21.50;1.00
38582;DHT22;24349;53.720;10.014;2023-06-22T06:12:02;21.70;99.90
38582;DHT22;24349;53.720;10.014;2023-06-22T06:14:28;21.70;99.90
38582;DHT22;24349;53.720;10.014;2023-06-22T06:16:54;21.70;1.00
38582;DHT22;24349;53.720;10.014;2023-06-22T06:19:19;21.70;99.90
38582;DHT22;24349;53.720;10.014;2023-06-22T06:21:45;21.80;1.00
38582;DHT22;24349;53.720;10.014;2023-06-22T06:24:11;21.80;82.90
38582;DHT22;24349;53.720;10.014;2023-06-22T06:26:37;21.60;99.90
38582;DHT22;24349;53.720;10.014;2023-06-22T06:29:02;21.70;99.90
38582;DHT22;24349;53.720;10.014;2023-06-22T06:31:28;22.00;55.70
38582;DHT22;24349;53.720;10.014;2023-06-22T06:33:54;22.10;99.90
38582;DHT22;24349;53.720;10.014;2023-06-22T06:36:20;22.10;1.00
38582;DHT22;24349;53.720;10.014;2023-06-22T06:38:46;22.00;1.00
38582;DHT22;24349;53.720;10.014;2023-06-22T06:41:16;22.10;99.90
38582;DHT22;24349;53.720;10.014;2023-06-22T06:43:42;22.30;1.00
38582;DHT22;24349;53.720;10.014;2023-06-22T06:46:10;22.40;1.00
38582;DHT22;24349;53.720;10.014;2023-06-22T06:48:36;22.50;99.90
38582;DHT22;24349;53.720;10.014;2023-06-22T06:51:02;23.00;99.90
38582;DHT22;24349;53.720;10.014;2023-06-22T06:53:28;23.50;1.00
38582;DHT22;24349;53.720;10.014;2023-06-22T06:55:54;23.70;99.90
38582;DHT22;24349;53.720;10.014;2023-06-22T06:58:20;24.20;99.90
38582;DHT22;24349;53.720;10.014;2023-06-22T07:00:45;24.70;2.00
38582;DHT22;24349;53.720;10.014;2023-06-22T07:03:11;24.70;99.90
38582;DHT22;24349;53.720;10.014;2023-06-22T07:05:36;24.40;99.90
38582;DHT22;24349;53.720;10.014;2023-06-22T07:08:02;24.20;99.90
38582;DHT22;24349;53.720;10.014;2023-06-22T07:10:28;24.10;99.90
38582;DHT22;24349;53.720;10.014;2023-06-22T07:12:54;24.50;99.90
38582;DHT22;24349;53.720;10.014;2023-06-22T07:15:20;24.30;99.90
38582;DHT22;24349;53.720;10.014;2023-06-22T07:17:45;24.50;1.00
38582;DHT22;24349;53.720;10.014;2023-06-22T07:20:11;25.00;90.00
38582;DHT22;24349;53.720;10.014;2023-06-22T07:22:42;25.80;99.90
38582;DHT22;24349;53.720;10.014;2023-06-22T07:25:08;26.30;99.90
38582;DHT22;24349;53.720;10.014;2023-06-22T07:27:39;26.80;1.00
38582;DHT22;24349;53.720;10.014;2023-06-22T07:30:08;27.30;99.90
38582;DHT22;24349;53.720;10.014;2023-06-22T07:32:34;27.50;99.90
38582;DHT22;24349;53.720;10.014;2023-06-22T07:35:00;27.90;99.90
38582;DHT22;24349;53.720;10.014;2023-06-22T07:37:26;27.90;99.90
38582;DHT22;24349;53.720;10.014;2023-06-22T07:39:53;27.70;99.90
38582;DHT22;24349;53.720;10.014;2023-06-22T07:42:24;27.80;99.90
38582;DHT22;24349;53.720;10.014;2023-06-22T07:44:49;27.40;99.90
38582;DHT22;24349;53.720;10.014;2023-06-22T07:47:16;28.10;99.90
38582;DHT22;24349;53.720;10.014;2023-06-22T07:49:45;28.30;99.90
38582;DHT22;24349;53.720;10.014;2023-06-22T07:52:10;28.30;99.90
38582;DHT22;24349;53.720;10.014;2023-06-22T07:54:36;28.70;99.90
38582;DHT22;24349;53.720;10.014;2023-06-22T07:57:02;29.00;99.90
38582;DHT22;24349;53.720;10.014;2023-06-22T07:59:28;29.10;85.90
38582;DHT22;24349;53.720;10.014;2023-06-22T08:01:54;28.80;71.70
38582;DHT22;24349;53.720;10.014;2023-06-22T08:04:20;28.90;77.90
38582;DHT22;24349;53.720;10.014;2023-06-22T08:06:46;28.60;69.40
38582;DHT22;24349;53.720;10.014;2023-06-22T08:09:11;27.70;86.50
38582;DHT22;24349;53.720;10.014;2023-06-22T08:11:37;26.90;94.60
38582;DHT22;24349;53.720;10.014;2023-06-22T08:14:03;26.30;99.90
38582;DHT22;24349;53.720;10.014;2023-06-22T08:16:28;25.80;99.90
38582;DHT22;24349;53.720;10.014;2023-06-22T08:18:54;25.60;99.90
38582;DHT22;24349;53.720;10.014;2023-06-22T08:21:20;25.40;99.90
38582;DHT22;24349;53.720;10.014;2023-06-22T08:23:46;25.40;99.90
38582;DHT22;24349;53.720;10.014;2023-06-22T08:26:11;25.60;99.90
38582;DHT22;24349;53.720;10.014;2023-06-22T08:28:37;25.90;99.90
38582;DHT22;24349;53.720;10.014;2023-06-22T08:31:03;26.20;99.90
38582;DHT22;24349;53.720;10.014;2023-06-22T08:33:29;26.10;99.90
38582;DHT22;24349;53.720;10.014;2023-06-22T08:35:56;26.10;99.90
38582;DHT22;24349;53.720;10.014;2023-06-22T08:38:22;26.10;99.90
38582;DHT22;24349;53.720;10.014;2023-06-22T08:40:47;26.60;99.90
38582;DHT22;24349;53.720;10.014;2023-06-22T08:43:14;26.90;99.90
38582;DHT22;24349;53.720;10.014;2023-06-22T08:45:39;26.80;99.90
38582;DHT22;24349;53.720;10.014;2023-06-22T08:48:05;26.50;99.90
38582;DHT22;24349;53.720;10.014;2023-06-22T08:50:31;26.90;99.90
38582;DHT22;24349;53.720;10.014;2023-06-22T08:52:56;27.40;99.90
38582;DHT22;24349;53.720;10.014;2023-06-22T08:55:22;27.60;99.90
38582;DHT22;24349;53.720;10.014;2023-06-22T08:57:48;27.60;99.90
38582;DHT22;24349;53.720;10.014;2023-06-22T09:00:14;27.30;99.90
38582;DHT22;24349;53.720;10.014;2023-06-22T09:02:43;27.30;91.30
38582;DHT22;24349;53.720;10.014;2023-06-22T09:05:09;26.90;95.80
38582;DHT22;24349;53.720;10.014;2023-06-22T09:07:35;26.70;99.90
38582;DHT22;24349;53.720;10.014;2023-06-22T09:10:00;26.90;99.90
38582;DHT22;24349;53.720;10.014;2023-06-22T09:12:26;27.60;99.10
38582;DHT22;24349;53.720;10.014;2023-06-22T09:14:53;27.90;75.00
38582;DHT22;24349;53.720;10.014;2023-06-22T09:17:18;27.90;83.50
38582;DHT22;24349;53.720;10.014;2023-06-22T09:19:44;28.40;62.30
38582;DHT22;24349;53.720;10.014;2023-06-22T09:22:10;28.30;49.40
38582;DHT22;24349;53.720;10.014;2023-06-22T09:24:35;28.50;46.90
38582;DHT22;24349;53.720;10.014;2023-06-22T09:27:01;28.50;61.80
38582;DHT22;24349;53.720;10.014;2023-06-22T09:29:27;28.90;53.60
38582;DHT22;24349;53.720;10.014;2023-06-22T09:31:52;29.20;34.60
38582;DHT22;24349;53.720;10.014;2023-06-22T09:34:19;29.50;23.50
38582;DHT22;24349;53.720;10.014;2023-06-22T09:36:46;29.70;20.40
38582;DHT22;24349;53.720;10.014;2023-06-22T09:39:12;29.50;8.00
38582;DHT22;24349;53.720;10.014;2023-06-22T09:41:37;28.80;7.10
38582;DHT22;24349;53.720;10.014;2023-06-22T09:44:03;28.70;17.40
38582;DHT22;24349;53.720;10.014;2023-06-22T09:46:29;29.10;12.00
38582;DHT22;24349;53.720;10.014;2023-06-22T09:48:54;28.80;3.80
38582;DHT22;24349;53.720;10.014;2023-06-22T09:51:20;28.70;3.30
38582;DHT22;24349;53.720;10.014;2023-06-22T09:53:47;28.60;11.60
38582;DHT22;24349;53.720;10.014;2023-06-22T09:56:13;28.60;5.20
38582;DHT22;24349;53.720;10.014;2023-06-22T09:58:44;29.00;10.70
38582;DHT22;24349;53.720;10.014;2023-06-22T10:01:10;29.00;11.90
38582;DHT22;24349;53.720;10.014;2023-06-22T10:03:36;29.20;16.10
38582;DHT22;24349;53.720;10.014;2023-06-22T10:06:02;29.60;1.00
38582;DHT22;24349;53.720;10.014;2023-06-22T10:08:28;29.30;1.00
38582;DHT22;24349;53.720;10.014;2023-06-22T10:10:54;29.30;1.00
38582;DHT22;24349;53.720;10.014;2023-06-22T10:13:20;29.20;1.00
38582;DHT22;24349;53.720;10.014;2023-06-22T10:15:45;29.00;1.00
38582;DHT22;24349;53.720;10.014;2023-06-22T10:18:15;29.10;1.00
38582;DHT22;24349;53.720;10.014;2023-06-22T10:20:41;28.50;1.00
38582;DHT22;24349;53.720;10.014;2023-06-22T10:23:07;28.10;1.00
38582;DHT22;24349;53.720;10.014;2023-06-22T10:25:33;28.20;1.00
38582;DHT22;24349;53.720;10.014;2023-06-22T10:27:58;28.40;1.00
38582;DHT22;24349;53.720;10.014;2023-06-22T10:30:24;28.30;1.90
38582;DHT22;24349;53.720;10.014;2023-06-22T10:32:50;28.30;6.40
38582;DHT22;24349;53.720;10.014;2023-06-22T10:35:15;28.40;6.30
38582;DHT22;24349;53.720;10.014;2023-06-22T10:37:45;28.60;1.00
38582;DHT22;24349;53.720;10.014;2023-06-22T10:40:12;28.70;3.40
38582;DHT22;24349;53.720;10.014;2023-06-22T10:42:38;28.90;8.70
38582;DHT22;24349;53.720;10.014;2023-06-22T10:45:04;28.90;6.80
38582;DHT22;24349;53.720;10.014;2023-06-22T10:47:30;28.90;12.70
38582;DHT22;24349;53.720;10.014;2023-06-22T10:49:56;29.40;15.00
38582;DHT22;24349;53.720;10.014;2023-06-22T10:52:21;30.10;2.70
38582;DHT22;24349;53.720;10.014;2023-06-22T10:54:47;30.60;4.80
38582;DHT22;24349;53.720;10.014;2023-06-22T10:57:14;30.80;1.00
38582;DHT22;24349;53.720;10.014;2023-06-22T10:59:39;30.90;1.00
38582;DHT22;24349;53.720;10.014;2023-06-22T11:02:05;31.30;1.00
38582;DHT22;24349;53.720;10.014;2023-06-22T11:04:31;31.20;1.00
38582;DHT22;24349;53.720;10.014;2023-06-22T11:06:56;30.90;1.00
38582;DHT22;24349;53.720;10.014;2023-06-22T11:09:22;30.80;1.00
38582;DHT22;24349;53.720;10.014;2023-06-22T11:11:51;31.00;1.00
38582;DHT22;24349;53.720;10.014;2023-06-22T11:14:19;31.30;1.00
38582;DHT22;24349;53.720;10.014;2023-06-22T11:16:44;31.60;1.00
38582;DHT22;24349;53.720;10.014;2023-06-22T11:19:12;31.50;1.00
38582;DHT22;24349;53.720;10.014;2023-06-22T11:21:37;30.60;1.00
38582;DHT22;24349;53.720;10.014;2023-06-22T11:24:03;30.80;1.00
38582;DHT22;24349;53.720;10.014;2023-06-22T11:26:29;30.70;1.00
38582;DHT22;24349;53.720;10.014;2023-06-22T11:28:55;31.40;1.00
38582;DHT22;24349;53.720;10.014;2023-06-22T11:31:21;31.30;1.00
38582;DHT22;24349;53.720;10.014;2023-06-22T11:33:46;30.90;1.00
38582;DHT22;24349;53.720;10.014;2023-06-22T11:36:13;31.10;1.00
38582;DHT22;24349;53.720;10.014;2023-06-22T11:38:39;31.60;1.00
38582;DHT22;24349;53.720;10.014;2023-06-22T11:41:06;32.00;1.00
38582;DHT22;24349;53.720;10.014;2023-06-22T11:43:31;31.80;1.00
38582;DHT22;24349;53.720;10.014;2023-06-22T11:45:57;31.60;1.00
38582;DHT22;24349;53.720;10.014;2023-06-22T11:48:24;31.90;1.00
38582;DHT22;24349;53.720;10.014;2023-06-22T11:50:50;32.00;1.00
38582;DHT22;24349;53.720;10.014;2023-06-22T11:53:15;32.00;1.00
38582;DHT22;24349;53.720;10.014;2023-06-22T11:55:45;31.70;1.00
38582;DHT22;24349;53.720;10.014;2023-06-22T11:58:11;32.00;1.00
38582;DHT22;24349;53.720;10.014;2023-06-22T12:00:37;31.50;1.00
38582;DHT22;24349;53.720;10.014;2023-06-22T12:03:03;31.70;1.00
38582;DHT22;24349;53.720;10.014;2023-06-22T12:05:28;31.50;1.00
38582;DHT22;24349;53.720;10.014;2023-06-22T12:07:54;31.10;1.00
38582;DHT22;24349;53.720;10.014;2023-06-22T12:10:21;30.20;1.00
38582;DHT22;24349;53.720;10.014;2023-06-22T12:12:47;30.00;1.00
38582;DHT22;24349;53.720;10.014;2023-06-22T12:15:12;30.10;1.00
38582;DHT22;24349;53.720;10.014;2023-06-22T12:17:38;29.70;1.00
38582;DHT22;24349;53.720;10.014;2023-06-22T12:20:05;29.80;1.00
38582;DHT22;24349;53.720;10.014;2023-06-22T12:22:34;29.90;1.00
38582;DHT22;24349;53.720;10.014;2023-06-22T12:25:00;29.70;1.00
38582;DHT22;24349;53.720;10.014;2023-06-22T12:27:26;29.60;1.00
38582;DHT22;24349;53.720;10.014;2023-06-22T12:29:52;29.50;1.00
38582;DHT22;24349;53.720;10.014;2023-06-22T12:32:17;29.50;1.00
38582;DHT22;24349;53.720;10.014;2023-06-22T12:34:44;29.10;1.00
38582;DHT22;24349;53.720;10.014;2023-06-22T12:37:09;29.30;1.00
38582;DHT22;24349;53.720;10.014;2023-06-22T12:39:35;29.40;1.00
38582;DHT22;24349;53.720;10.014;2023-06-22T12:42:01;29.70;1.00
38582;DHT22;24349;53.720;10.014;2023-06-22T12:44:27;29.70;1.00
38582;DHT22;24349;53.720;10.014;2023-06-22T12:46:52;29.20;1.00
38582;DHT22;24349;53.720;10.014;2023-06-22T12:49:18;29.40;1.00
38582;DHT22;24349;53.720;10.014;2023-06-22T12:51:44;29.70;1.00
38582;DHT22;24349;53.720;10.014;2023-06-22T12:54:10;30.40;1.00
38582;DHT22;24349;53.720;10.014;2023-06-22T12:56:36;31.00;1.00
38582;DHT22;24349;53.720;10.014;2023-06-22T12:59:03;31.40;1.00
38582;DHT22;24349;53.720;10.014;2023-06-22T13:01:29;31.60;1.00
38582;DHT22;24349;53.720;10.014;2023-06-22T13:03:58;32.00;1.00
38582;DHT22;24349;53.720;10.014;2023-06-22T13:06:24;32.00;1.00
38582;DHT22;24349;53.720;10.014;2023-06-22T13:08:50;32.00;1.00
38582;DHT22;24349;53.720;10.014;2023-06-22T13:11:15;32.40;1.00
38582;DHT22;24349;53.720;10.014;2023-06-22T13:13:41;32.60;1.00
38582;DHT22;24349;53.720;10.014;2023-06-22T13:16:07;32.80;1.00
38582;DHT22;24349;53.720;10.014;2023-06-22T13:18:33;32.90;1.00
38582;DHT22;24349;53.720;10.014;2023-06-22T13:21:01;32.10;1.00
38582;DHT22;24349;53.720;10.014;2023-06-22T13:23:27;31.90;1.00
38582;DHT22;24349;53.720;10.014;2023-06-22T13:25:52;31.90;1.00
38582;DHT22;24349;53.720;10.014;2023-06-22T13:28:18;32.10;1.00
38582;DHT22;24349;53.720;10.014;2023-06-22T13:30:44;32.50;1.00
38582;DHT22;24349;53.720;10.014;2023-06-22T13:33:13;32.60;1.00
38582;DHT22;24349;53.720;10.014;2023-06-22T13:35:38;32.10;1.00
38582;DHT22;24349;53.720;10.014;2023-06-22T13:38:04;32.30;1.00
38582;DHT22;24349;53.720;10.014;2023-06-22T13:40:30;32.40;1.00
38582;DHT22;24349;53.720;10.014;2023-06-22T13:42:56;32.40;1.00
38582;DHT22;24349;53.720;10.014;2023-06-22T13:45:22;31.70;1.00
38582;DHT22;24349;53.720;10.014;2023-06-22T13:47:48;31.60;1.00
38582;DHT22;24349;53.720;10.014;2023-06-22T13:50:13;31.20;1.00
38582;DHT22;24349;53.720;10.014;2023-06-22T13:52:39;31.20;1.00
38582;DHT22;24349;53.720;10.014;2023-06-22T13:55:06;30.50;1.00
38582;DHT22;24349;53.720;10.014;2023-06-22T13:57:35;29.80;1.00
38582;DHT22;24349;53.720;10.014;2023-06-22T14:00:01;29.40;1.00
38582;DHT22;24349;53.720;10.014;2023-06-22T14:02:27;29.40;1.00
38582;DHT22;24349;53.720;10.014;2023-06-22T14:04:53;29.60;1.00
38582;DHT22;24349;53.720;10.014;2023-06-22T14:07:19;29.80;1.00
38582;DHT22;24349;53.720;10.014;2023-06-22T14:09:46;29.90;1.00
38582;DHT22;24349;53.720;10.014;2023-06-22T14:12:12;29.80;1.00
38582;DHT22;24349;53.720;10.014;2023-06-22T14:14:38;29.90;1.00
38582;DHT22;24349;53.720;10.014;2023-06-22T14:17:04;29.80;1.00
38582;DHT22;24349;53.720;10.014;2023-06-22T14:19:30;29.70;1.00
38582;DHT22;24349;53.720;10.014;2023-06-22T14:21:56;29.40;1.00
38582;DHT22;24349;53.720;10.014;2023-06-22T14:24:22;29.30;1.00
38582;DHT22;24349;53.720;10.014;2023-06-22T14:26:48;29.10;1.00
38582;DHT22;24349;53.720;10.014;2023-06-22T14:29:14;29.20;1.00
38582;DHT22;24349;53.720;10.014;2023-06-22T14:31:39;29.10;1.00
38582;DHT22;24349;53.720;10.014;2023-06-22T14:34:05;29.30;1.00
38582;DHT22;24349;53.720;10.014;2023-06-22T14:36:31;29.50;1.00
38582;DHT22;24349;53.720;10.014;2023-06-22T14:38:57;29.50;1.00
38582;DHT22;24349;53.720;10.014;2023-06-22T14:41:23;29.00;1.00
38582;DHT22;24349;53.720;10.014;2023-06-22T14:43:49;29.50;1.00
38582;DHT22;24349;53.720;10.014;2023-06-22T14:46:17;29.80;1.00
38582;DHT22;24349;53.720;10.014;2023-06-22T14:48:43;29.70;1.00
38582;DHT22;24349;53.720;10.014;2023-06-22T14:51:09;29.60;1.00
38582;DHT22;24349;53.720;10.014;2023-06-22T14:53:35;29.40;1.00
38582;DHT22;24349;53.720;10.014;2023-06-22T14:56:01;29.20;1.00
38582;DHT22;24349;53.720;10.014;2023-06-22T14:58:33;28.70;1.00
38582;DHT22;24349;53.720;10.014;2023-06-22T15:01:07;28.20;1.00
38582;DHT22;24349;53.720;10.014;2023-06-22T15:03:36;28.00;1.00
38582;DHT22;24349;53.720;10.014;2023-06-22T15:06:02;27.90;1.00
38582;DHT22;24349;53.720;10.014;2023-06-22T15:08:28;27.90;1.00
38582;DHT22;24349;53.720;10.014;2023-06-22T15:10:54;27.80;1.00
38582;DHT22;24349;53.720;10.014;2023-06-22T15:13:21;27.60;1.00
38582;DHT22;24349;53.720;10.014;2023-06-22T15:15:48;27.50;1.00
38582;DHT22;24349;53.720;10.014;2023-06-22T15:18:15;27.10;1.00
38582;DHT22;24349;53.720;10.014;2023-06-22T15:20:41;27.10;18.50
38582;DHT22;24349;53.720;10.014;2023-06-22T15:23:09;27.00;32.00
38582;DHT22;24349;53.720;10.014;2023-06-22T15:25:35;27.10;46.30